sensor_id;sensor_type;location;lat;lon;timestamp;temperature;humidity
15997;DHT22;8103;51.340;12.326;2023-04-08T00:01:06;7.10;99.90
15997;DHT22;8103;51.340;12.326;2023-04-08T00:03:33;7.10;99.90
15997;DHT22;8103;51.340;12.326;2023-04-08T00:06:00;7.10;99.90
15997;DHT22;8103;51.340;12.326;2023-04-08T00:08:28;7.00;99.90
15997;DHT22;8103;51.340;12.326;2023-04-08T00:10:56;7.00;99.90
15997;DHT22;8103;51.340;12.326;2023-04-08T00:13:22;7.00;99.90
15997;DHT22;8103;51.340;12.326;2023-04-08T00:15:49;7.00;99.90
15997;DHT22;8103;51.340;12.326;2023-04-08T00:18:16;7.00;99.90
15997;DHT22;8103;51.340;12.326;2023-04-08T00:20:43;7.00;99.90
15997;DHT22;8103;51.340;12.326;2023-04-08T00:23:10;7.00;99.90
15997;DHT22;8103;51.340;12.326;2023-04-08T00:25:37;6.90;99.90
15997;DHT22;8103;51.340;12.326;2023-04-08T00:28:04;6.90;99.90
15997;DHT22;8103;51.340;12.326;2023-04-08T00:30:30;6.90;99.90
15997;DHT22;8103;51.340;12.326;2023-04-08T00:32:57;6.90;99.90
15997;DHT22;8103;51.340;12.326;2023-04-08T00:35:24;6.90;99.90
15997;DHT22;8103;51.340;12.326;2023-04-08T00:37:51;6.90;99.90
15997;DHT22;8103;51.340;12.326;2023-04-08T00:40:18;6.90;99.90
15997;DHT22;8103;51.340;12.326;2023-04-08T00:42:45;6.90;99.90
15997;DHT22;8103;51.340;12.326;2023-04-08T00:45:12;6.90;99.90
15997;DHT22;8103;51.340;12.326;2023-04-08T00:47:39;6.90;99.90
15997;DHT22;8103;51.340;12.326;2023-04-08T00:50:08;6.90;99.90
15997;DHT22;8103;51.340;12.326;2023-04-08T00:52:37;6.90;99.90
15997;DHT22;8103;51.340;12.326;2023-04-08T00:55:05;6.90;99.90
15997;DHT22;8103;51.340;12.326;2023-04-08T00:57:32;6.90;99.90
15997;DHT22;8103;51.340;12.326;2023-04-08T00:59:59;7.00;99.90
15997;DHT22;8103;51.340;12.326;2023-04-08T01:02:43;7.00;99.90
15997;DHT22;8103;51.340;12.326;2023-04-08T01:05:39;6.90;99.90
15997;DHT22;8103;51.340;12.326;2023-04-08T01:08:16;6.90;99.90
15997;DHT22;8103;51.340;12.326;2023-04-08T01:10:44;6.80;99.90
15997;DHT22;8103;51.340;12.326;2023-04-08T01:13:18;6.80;99.90
15997;DHT22;8103;51.340;12.326;2023-04-08T01:15:49;6.90;99.90
15997;DHT22;8103;51.340;12.326;2023-04-08T01:18:16;6.90;99.90
15997;DHT22;8103;51.340;12.326;2023-04-08T01:20:45;6.90;99.90
15997;DHT22;8103;51.340;12.326;2023-04-08T01:23:36;6.80;99.90
15997;DHT22;8103;51.340;12.326;2023-04-08T01:26:12;6.80;99.90
15997;DHT22;8103;51.340;12.326;2023-04-08T01:28:49;6.80;99.90
15997;DHT22;8103;51.340;12.326;2023-04-08T01:31:21;6.70;99.90
15997;DHT22;8103;51.340;12.326;2023-04-08T01:33:51;6.70;99.90
15997;DHT22;8103;51.340;12.326;2023-04-08T01:36:19;6.70;99.90
15997;DHT22;8103;51.340;12.326;2023-04-08T01:38:47;6.80;99.90
15997;DHT22;8103;51.340;12.326;2023-04-08T01:41:17;6.80;99.90
15997;DHT22;8103;51.340;12.326;2023-04-08T01:43:46;6.80;99.90
15997;DHT22;8103;51.340;12.326;2023-04-08T01:46:14;6.80;99.90
15997;DHT22;8103;51.340;12.326;2023-04-08T01:48:42;6.80;99.90
15997;DHT22;8103;51.340;12.326;2023-04-08T01:51:10;6.80;99.90
15997;DHT22;8103;51.340;12.326;2023-04-08T01:53:38;6.80;99.90
15997;DHT22;8103;51.340;12.326;2023-04-08T01:56:08;6.80;99.90
15997;DHT22;8103;51.340;12.326;2023-04-08T01:58:42;6.80;99.90
15997;DHT22;8103;51.340;12.326;2023-04-08T02:01:17;6.90;99.90
15997;DHT22;8103;51.340;12.326;2023-04-08T02:03:49;6.80;99.90
15997;DHT22;8103;51.340;12.326;2023-04-08T02:06:17;6.90;99.90
15997;DHT22;8103;51.340;12.326;2023-04-08T02:08:44;6.80;99.90
15997;DHT22;8103;51.340;12.326;2023-04-08T02:11:11;6.80;99.90
15997;DHT22;8103;51.340;12.326;2023-04-08T02:13:38;6.80;99.90
15997;DHT22;8103;51.340;12.326;2023-04-08T02:18:53;6.70;99.90
15997;DHT22;8103;51.340;12.326;2023-04-08T02:21:32;6.70;99.90
15997;DHT22;8103;51.340;12.326;2023-04-08T02:24:06;6.70;99.90
15997;DHT22;8103;51.340;12.326;2023-04-08T02:26:39;6.70;99.90
15997;DHT22;8103;51.340;12.326;2023-04-08T02:29:11;6.70;99.90
15997;DHT22;8103;51.340;12.326;2023-04-08T02:31:41;6.60;99.90
15997;DHT22;8103;51.340;12.326;2023-04-08T02:34:10;6.70;99.90
15997;DHT22;8103;51.340;12.326;2023-04-08T02:36:38;6.70;99.90
15997;DHT22;8103;51.340;12.326;2023-04-08T02:39:06;6.70;99.90
15997;DHT22;8103;51.340;12.326;2023-04-08T02:41:33;6.60;99.90
15997;DHT22;8103;51.340;12.326;2023-04-08T02:44:00;6.60;99.90
15997;DHT22;8103;51.340;12.326;2023-04-08T02:46:27;6.60;99.90
15997;DHT22;8103;51.340;12.326;2023-04-08T02:48:54;6.60;99.90
15997;DHT22;8103;51.340;12.326;2023-04-08T02:51:21;6.60;99.90
15997;DHT22;8103;51.340;12.326;2023-04-08T02:53:47;6.60;99.90
15997;DHT22;8103;51.340;12.326;2023-04-08T02:56:14;6.60;99.90
15997;DHT22;8103;51.340;12.326;2023-04-08T02:58:41;6.60;99.90
15997;DHT22;8103;51.340;12.326;2023-04-08T03:01:08;6.60;99.90
15997;DHT22;8103;51.340;12.326;2023-04-08T03:03:35;6.60;99.90
15997;DHT22;8103;51.340;12.326;2023-04-08T03:06:02;6.60;99.90
15997;DHT22;8103;51.340;12.326;2023-04-08T03:08:29;6.50;99.90
15997;DHT22;8103;51.340;12.326;2023-04-08T03:10:56;6.50;99.90
15997;DHT22;8103;51.340;12.326;2023-04-08T03:13:23;6.50;99.90
15997;DHT22;8103;51.340;12.326;2023-04-08T03:15:50;6.50;99.90
15997;DHT22;8103;51.340;12.326;2023-04-08T03:18:16;6.50;99.90
15997;DHT22;8103;51.340;12.326;2023-04-08T03:20:43;6.50;99.90
15997;DHT22;8103;51.340;12.326;2023-04-08T03:23:10;6.50;99.90
15997;DHT22;8103;51.340;12.326;2023-04-08T03:25:37;6.50;99.90
15997;DHT22;8103;51.340;12.326;2023-04-08T03:28:04;6.50;99.90
15997;DHT22;8103;51.340;12.326;2023-04-08T03:30:31;6.40;99.90
15997;DHT22;8103;51.340;12.326;2023-04-08T03:32:57;6.40;99.90
15997;DHT22;8103;51.340;12.326;2023-04-08T03:35:24;6.40;99.90
15997;DHT22;8103;51.340;12.326;2023-04-08T03:37:51;6.40;99.90
15997;DHT22;8103;51.340;12.326;2023-04-08T03:40:18;6.40;99.90
15997;DHT22;8103;51.340;12.326;2023-04-08T03:42:45;6.40;99.90
15997;DHT22;8103;51.340;12.326;2023-04-08T03:45:12;6.40;99.90
15997;DHT22;8103;51.340;12.326;2023-04-08T03:47:39;6.40;99.90
15997;DHT22;8103;51.340;12.326;2023-04-08T03:50:07;6.40;99.90
15997;DHT22;8103;51.340;12.326;2023-04-08T03:52:34;6.50;99.90
15997;DHT22;8103;51.340;12.326;2023-04-08T03:55:01;6.50;99.90
15997;DHT22;8103;51.340;12.326;2023-04-08T03:57:27;6.50;99.90
15997;DHT22;8103;51.340;12.326;2023-04-08T03:59:54;6.50;99.90
15997;DHT22;8103;51.340;12.326;2023-04-08T04:02:21;6.50;99.90
15997;DHT22;8103;51.340;12.326;2023-04-08T04:04:48;6.50;99.90
15997;DHT22;8103;51.340;12.326;2023-04-08T04:07:15;6.50;99.90
15997;DHT22;8103;51.340;12.326;2023-04-08T04:09:41;6.40;99.90
15997;DHT22;8103;51.340;12.326;2023-04-08T04:12:08;6.50;99.90
15997;DHT22;8103;51.340;12.326;2023-04-08T04:14:35;6.40;99.90
15997;DHT22;8103;51.340;12.326;2023-04-08T04:17:02;6.40;99.90
15997;DHT22;8103;51.340;12.326;2023-04-08T04:19:29;6.30;99.90
15997;DHT22;8103;51.340;12.326;2023-04-08T04:21:57;6.30;99.90
15997;DHT22;8103;51.340;12.326;2023-04-08T04:24:23;6.30;99.90
15997;DHT22;8103;51.340;12.326;2023-04-08T04:26:50;6.30;99.90
15997;DHT22;8103;51.340;12.326;2023-04-08T04:29:17;6.30;99.90
15997;DHT22;8103;51.340;12.326;2023-04-08T04:31:44;6.30;99.90
15997;DHT22;8103;51.340;12.326;2023-04-08T04:34:11;6.30;99.90
15997;DHT22;8103;51.340;12.326;2023-04-08T04:36:38;6.30;99.90
15997;DHT22;8103;51.340;12.326;2023-04-08T04:39:05;6.30;99.90
15997;DHT22;8103;51.340;12.326;2023-04-08T04:41:32;6.30;99.90
15997;DHT22;8103;51.340;12.326;2023-04-08T04:44:00;6.30;99.90
15997;DHT22;8103;51.340;12.326;2023-04-08T04:46:27;6.30;99.90
15997;DHT22;8103;51.340;12.326;2023-04-08T04:48:54;6.20;99.90
15997;DHT22;8103;51.340;12.326;2023-04-08T04:51:21;6.30;99.90
15997;DHT22;8103;51.340;12.326;2023-04-08T04:53:47;6.20;99.90
15997;DHT22;8103;51.340;12.326;2023-04-08T04:56:15;6.20;99.90
15997;DHT22;8103;51.340;12.326;2023-04-08T04:58:42;6.30;99.90
15997;DHT22;8103;51.340;12.326;2023-04-08T05:01:09;6.30;99.90
15997;DHT22;8103;51.340;12.326;2023-04-08T05:03:36;6.20;99.90
15997;DHT22;8103;51.340;12.326;2023-04-08T05:06:03;6.30;99.90
15997;DHT22;8103;51.340;12.326;2023-04-08T05:08:30;6.30;99.90
15997;DHT22;8103;51.340;12.326;2023-04-08T05:10:57;6.30;99.90
15997;DHT22;8103;51.340;12.326;2023-04-08T05:13:28;6.30;99.90
15997;DHT22;8103;51.340;12.326;2023-04-08T05:15:55;6.30;99.90
15997;DHT22;8103;51.340;12.326;2023-04-08T05:18:21;6.30;99.90
15997;DHT22;8103;51.340;12.326;2023-04-08T05:20:48;6.30;99.90
15997;DHT22;8103;51.340;12.326;2023-04-08T05:23:15;6.40;99.90
15997;DHT22;8103;51.340;12.326;2023-04-08T05:25:42;6.40;99.90
15997;DHT22;8103;51.340;12.326;2023-04-08T05:28:09;6.40;99.90
15997;DHT22;8103;51.340;12.326;2023-04-08T05:30:36;6.50;99.90
15997;DHT22;8103;51.340;12.326;2023-04-08T05:33:03;6.50;99.90
15997;DHT22;8103;51.340;12.326;2023-04-08T05:35:30;6.50;99.90
15997;DHT22;8103;51.340;12.326;2023-04-08T05:37:56;6.50;99.90
15997;DHT22;8103;51.340;12.326;2023-04-08T05:40:23;6.50;99.90
15997;DHT22;8103;51.340;12.326;2023-04-08T05:42:50;6.50;99.90
15997;DHT22;8103;51.340;12.326;2023-04-08T05:45:17;6.60;99.90
15997;DHT22;8103;51.340;12.326;2023-04-08T05:47:44;6.50;99.90
15997;DHT22;8103;51.340;12.326;2023-04-08T05:50:11;6.50;99.90
15997;DHT22;8103;51.340;12.326;2023-04-08T05:52:42;6.50;99.90
15997;DHT22;8103;51.340;12.326;2023-04-08T05:55:10;6.50;99.90
15997;DHT22;8103;51.340;12.326;2023-04-08T05:57:40;6.40;99.90
15997;DHT22;8103;51.340;12.326;2023-04-08T06:00:09;6.50;99.90
15997;DHT22;8103;51.340;12.326;2023-04-08T06:02:37;6.50;99.90
15997;DHT22;8103;51.340;12.326;2023-04-08T06:05:04;6.50;99.90
15997;DHT22;8103;51.340;12.326;2023-04-08T06:07:32;6.50;99.90
15997;DHT22;8103;51.340;12.326;2023-04-08T06:10:00;6.50;99.90
15997;DHT22;8103;51.340;12.326;2023-04-08T06:12:27;6.50;99.90
15997;DHT22;8103;51.340;12.326;2023-04-08T06:14:54;6.40;99.90
15997;DHT22;8103;51.340;12.326;2023-04-08T06:17:21;6.40;99.90
15997;DHT22;8103;51.340;12.326;2023-04-08T06:19:51;6.40;99.90
15997;DHT22;8103;51.340;12.326;2023-04-08T06:22:18;6.50;99.90
15997;DHT22;8103;51.340;12.326;2023-04-08T06:24:46;6.50;99.90
15997;DHT22;8103;51.340;12.326;2023-04-08T06:27:14;6.60;99.90
15997;DHT22;8103;51.340;12.326;2023-04-08T06:29:41;6.60;99.90
15997;DHT22;8103;51.340;12.326;2023-04-08T06:32:09;6.60;99.90
15997;DHT22;8103;51.340;12.326;2023-04-08T06:34:37;6.60;99.90
15997;DHT22;8103;51.340;12.326;2023-04-08T06:37:04;6.70;99.90
15997;DHT22;8103;51.340;12.326;2023-04-08T06:39:32;6.70;99.90
15997;DHT22;8103;51.340;12.326;2023-04-08T06:41:59;6.70;99.90
15997;DHT22;8103;51.340;12.326;2023-04-08T06:44:26;6.70;99.90
15997;DHT22;8103;51.340;12.326;2023-04-08T06:46:52;6.80;99.90
15997;DHT22;8103;51.340;12.326;2023-04-08T06:49:19;6.80;99.90
15997;DHT22;8103;51.340;12.326;2023-04-08T06:51:46;6.80;99.90
15997;DHT22;8103;51.340;12.326;2023-04-08T06:54:13;6.80;99.90
15997;DHT22;8103;51.340;12.326;2023-04-08T06:56:40;6.90;99.90
15997;DHT22;8103;51.340;12.326;2023-04-08T06:59:08;6.90;99.90
15997;DHT22;8103;51.340;12.326;2023-04-08T07:01:35;6.90;99.90
15997;DHT22;8103;51.340;12.326;2023-04-08T07:04:02;7.00;99.90
15997;DHT22;8103;51.340;12.326;2023-04-08T07:06:29;7.00;99.90
15997;DHT22;8103;51.340;12.326;2023-04-08T07:08:56;7.00;99.90
15997;DHT22;8103;51.340;12.326;2023-04-08T07:11:23;7.10;99.90
15997;DHT22;8103;51.340;12.326;2023-04-08T07:13:50;7.10;99.90
15997;DHT22;8103;51.340;12.326;2023-04-08T07:25:23;7.10;99.90
15997;DHT22;8103;51.340;12.326;2023-04-08T07:27:50;7.20;99.90
15997;DHT22;8103;51.340;12.326;2023-04-08T07:30:18;7.20;99.90
15997;DHT22;8103;51.340;12.326;2023-04-08T07:32:45;7.30;99.90
15997;DHT22;8103;51.340;12.326;2023-04-08T07:35:12;7.30;99.90
15997;DHT22;8103;51.340;12.326;2023-04-08T07:37:39;7.30;99.90
15997;DHT22;8103;51.340;12.326;2023-04-08T07:40:06;7.40;99.90
15997;DHT22;8103;51.340;12.326;2023-04-08T07:42:33;7.60;99.90
15997;DHT22;8103;51.340;12.326;2023-04-08T07:45:00;7.60;99.90
15997;DHT22;8103;51.340;12.326;2023-04-08T07:47:27;7.60;99.90
15997;DHT22;8103;51.340;12.326;2023-04-08T07:49:54;7.60;99.90
15997;DHT22;8103;51.340;12.326;2023-04-08T07:52:22;7.70;99.90
15997;DHT22;8103;51.340;12.326;2023-04-08T07:54:49;7.70;99.90
15997;DHT22;8103;51.340;12.326;2023-04-08T07:57:16;7.80;99.90
15997;DHT22;8103;51.340;12.326;2023-04-08T07:59:43;7.80;99.90
15997;DHT22;8103;51.340;12.326;2023-04-08T08:02:10;7.90;99.90
15997;DHT22;8103;51.340;12.326;2023-04-08T08:04:37;8.00;99.90
15997;DHT22;8103;51.340;12.326;2023-04-08T08:07:05;8.20;99.90
15997;DHT22;8103;51.340;12.326;2023-04-08T08:09:31;8.30;99.90
15997;DHT22;8103;51.340;12.326;2023-04-08T08:11:58;8.40;99.90
15997;DHT22;8103;51.340;12.326;2023-04-08T08:14:25;8.50;99.90
15997;DHT22;8103;51.340;12.326;2023-04-08T08:16:52;8.60;99.90
15997;DHT22;8103;51.340;12.326;2023-04-08T08:19:20;8.70;99.90
15997;DHT22;8103;51.340;12.326;2023-04-08T08:21:47;8.70;99.90
15997;DHT22;8103;51.340;12.326;2023-04-08T08:24:14;8.70;99.90
15997;DHT22;8103;51.340;12.326;2023-04-08T08:26:42;8.70;99.90
15997;DHT22;8103;51.340;12.326;2023-04-08T08:29:10;8.80;99.90
15997;DHT22;8103;51.340;12.326;2023-04-08T08:31:38;8.80;99.90
15997;DHT22;8103;51.340;12.326;2023-04-08T08:34:04;8.80;99.90
15997;DHT22;8103;51.340;12.326;2023-04-08T08:36:32;8.90;99.90
15997;DHT22;8103;51.340;12.326;2023-04-08T08:39:00;9.00;99.90
15997;DHT22;8103;51.340;12.326;2023-04-08T08:41:32;9.10;99.90
15997;DHT22;8103;51.340;12.326;2023-04-08T08:44:01;9.30;99.90
15997;DHT22;8103;51.340;12.326;2023-04-08T08:46:30;9.50;99.90
15997;DHT22;8103;51.340;12.326;2023-04-08T08:53:03;9.60;99.90
15997;DHT22;8103;51.340;12.326;2023-04-08T08:55:31;9.70;99.90
15997;DHT22;8103;51.340;12.326;2023-04-08T08:58:20;9.70;99.90
15997;DHT22;8103;51.340;12.326;2023-04-08T09:00:47;9.70;99.90
15997;DHT22;8103;51.340;12.326;2023-04-08T09:03:21;9.70;99.90
15997;DHT22;8103;51.340;12.326;2023-04-08T09:05:58;9.80;99.90
15997;DHT22;8103;51.340;12.326;2023-04-08T09:12:33;10.10;99.90
15997;DHT22;8103;51.340;12.326;2023-04-08T09:15:05;10.40;99.90
15997;DHT22;8103;51.340;12.326;2023-04-08T09:17:36;10.60;99.90
15997;DHT22;8103;51.340;12.326;2023-04-08T09:20:09;10.70;99.90
15997;DHT22;8103;51.340;12.326;2023-04-08T09:25:28;11.00;99.90
15997;DHT22;8103;51.340;12.326;2023-04-08T09:27:58;11.00;99.90
15997;DHT22;8103;51.340;12.326;2023-04-08T09:30:26;11.00;99.90
15997;DHT22;8103;51.340;12.326;2023-04-08T09:32:54;11.00;99.90
15997;DHT22;8103;51.340;12.326;2023-04-08T09:35:23;10.90;99.90
15997;DHT22;8103;51.340;12.326;2023-04-08T09:37:50;10.80;99.90
15997;DHT22;8103;51.340;12.326;2023-04-08T09:40:17;10.70;99.90
15997;DHT22;8103;51.340;12.326;2023-04-08T09:42:48;10.50;99.90
15997;DHT22;8103;51.340;12.326;2023-04-08T09:45:19;10.20;99.90
15997;DHT22;8103;51.340;12.326;2023-04-08T09:48:12;10.10;99.90
15997;DHT22;8103;51.340;12.326;2023-04-08T09:50:51;10.10;99.90
15997;DHT22;8103;51.340;12.326;2023-04-08T09:53:29;10.10;99.90
15997;DHT22;8103;51.340;12.326;2023-04-08T10:00:23;10.20;99.90
15997;DHT22;8103;51.340;12.326;2023-04-08T10:05:55;9.90;99.90
15997;DHT22;8103;51.340;12.326;2023-04-08T10:08:25;9.90;99.90
15997;DHT22;8103;51.340;12.326;2023-04-08T10:10:53;9.80;99.90
15997;DHT22;8103;51.340;12.326;2023-04-08T10:13:22;9.80;99.90
15997;DHT22;8103;51.340;12.326;2023-04-08T10:15:50;9.70;99.90
15997;DHT22;8103;51.340;12.326;2023-04-08T10:20:55;9.60;99.90
15997;DHT22;8103;51.340;12.326;2023-04-08T10:23:53;9.50;99.90
15997;DHT22;8103;51.340;12.326;2023-04-08T10:26:42;9.50;99.90
15997;DHT22;8103;51.340;12.326;2023-04-08T10:31:48;9.40;99.90
15997;DHT22;8103;51.340;12.326;2023-04-08T10:34:23;9.40;99.90
15997;DHT22;8103;51.340;12.326;2023-04-08T10:36:53;9.50;99.90
15997;DHT22;8103;51.340;12.326;2023-04-08T10:43:35;9.50;99.90
15997;DHT22;8103;51.340;12.326;2023-04-08T10:46:03;9.50;99.90
15997;DHT22;8103;51.340;12.326;2023-04-08T10:48:31;9.50;99.90
15997;DHT22;8103;51.340;12.326;2023-04-08T10:51:04;9.40;99.90
15997;DHT22;8103;51.340;12.326;2023-04-08T10:53:38;9.40;99.90
15997;DHT22;8103;51.340;12.326;2023-04-08T10:58:52;9.60;99.90
15997;DHT22;8103;51.340;12.326;2023-04-08T11:01:22;9.70;99.90
15997;DHT22;8103;51.340;12.326;2023-04-08T11:03:49;9.90;99.90
15997;DHT22;8103;51.340;12.326;2023-04-08T11:06:17;10.10;99.90
15997;DHT22;8103;51.340;12.326;2023-04-08T11:08:44;10.30;99.90
15997;DHT22;8103;51.340;12.326;2023-04-08T11:11:11;10.50;99.90
15997;DHT22;8103;51.340;12.326;2023-04-08T11:13:41;10.60;99.90
15997;DHT22;8103;51.340;12.326;2023-04-08T11:16:18;10.80;99.90
15997;DHT22;8103;51.340;12.326;2023-04-08T11:18:46;10.90;99.90
15997;DHT22;8103;51.340;12.326;2023-04-08T11:21:16;10.90;99.90
15997;DHT22;8103;51.340;12.326;2023-04-08T11:23:50;11.10;99.90
15997;DHT22;8103;51.340;12.326;2023-04-08T11:26:21;11.20;99.90
15997;DHT22;8103;51.340;12.326;2023-04-08T11:28:50;11.40;99.90
15997;DHT22;8103;51.340;12.326;2023-04-08T11:31:18;11.60;99.90
15997;DHT22;8103;51.340;12.326;2023-04-08T11:33:52;11.80;99.90
15997;DHT22;8103;51.340;12.326;2023-04-08T11:36:21;12.50;99.90
15997;DHT22;8103;51.340;12.326;2023-04-08T11:42:55;13.00;99.90
15997;DHT22;8103;51.340;12.326;2023-04-08T11:49:22;13.60;99.10
15997;DHT22;8103;51.340;12.326;2023-04-08T11:51:55;13.80;96.90
15997;DHT22;8103;51.340;12.326;2023-04-08T11:54:30;13.80;96.80
15997;DHT22;8103;51.340;12.326;2023-04-08T11:56:58;13.80;96.30
15997;DHT22;8103;51.340;12.326;2023-04-08T11:59:34;13.60;96.30
15997;DHT22;8103;51.340;12.326;2023-04-08T12:02:03;13.20;96.50
15997;DHT22;8103;51.340;12.326;2023-04-08T12:04:32;12.80;97.00
15997;DHT22;8103;51.340;12.326;2023-04-08T12:07:02;12.50;97.50
15997;DHT22;8103;51.340;12.326;2023-04-08T12:09:29;12.30;97.70
15997;DHT22;8103;51.340;12.326;2023-04-08T12:11:58;12.10;98.00
15997;DHT22;8103;51.340;12.326;2023-04-08T12:18:32;12.20;98.60
15997;DHT22;8103;51.340;12.326;2023-04-08T12:21:00;13.50;98.00
15997;DHT22;8103;51.340;12.326;2023-04-08T12:23:27;14.40;95.30
15997;DHT22;8103;51.340;12.326;2023-04-08T12:25:54;14.90;93.50
15997;DHT22;8103;51.340;12.326;2023-04-08T12:32:28;14.80;91.90
15997;DHT22;8103;51.340;12.326;2023-04-08T12:34:55;14.20;91.90
15997;DHT22;8103;51.340;12.326;2023-04-08T12:41:28;13.30;93.10
15997;DHT22;8103;51.340;12.326;2023-04-08T12:43:55;12.80;94.00
15997;DHT22;8103;51.340;12.326;2023-04-08T12:50:28;12.30;94.90
15997;DHT22;8103;51.340;12.326;2023-04-08T12:57:02;12.80;94.60
15997;DHT22;8103;51.340;12.326;2023-04-08T12:59:30;13.20;93.90
15997;DHT22;8103;51.340;12.326;2023-04-08T13:02:00;13.40;93.30
15997;DHT22;8103;51.340;12.326;2023-04-08T13:04:26;13.70;92.70
15997;DHT22;8103;51.340;12.326;2023-04-08T13:06:53;13.70;92.10
15997;DHT22;8103;51.340;12.326;2023-04-08T13:09:21;13.80;92.00
15997;DHT22;8103;51.340;12.326;2023-04-08T13:11:49;13.80;91.70
15997;DHT22;8103;51.340;12.326;2023-04-08T13:14:16;13.60;91.90
15997;DHT22;8103;51.340;12.326;2023-04-08T13:16:43;13.40;92.40
15997;DHT22;8103;51.340;12.326;2023-04-08T13:19:10;13.20;93.10
15997;DHT22;8103;51.340;12.326;2023-04-08T13:21:37;13.20;93.70
15997;DHT22;8103;51.340;12.326;2023-04-08T13:24:05;13.10;94.00
15997;DHT22;8103;51.340;12.326;2023-04-08T13:30:38;13.10;94.40
15997;DHT22;8103;51.340;12.326;2023-04-08T13:37:12;12.70;94.90
15997;DHT22;8103;51.340;12.326;2023-04-08T13:39:39;12.60;95.50
15997;DHT22;8103;51.340;12.326;2023-04-08T13:42:06;12.70;95.70
15997;DHT22;8103;51.340;12.326;2023-04-08T13:44:33;12.90;95.10
15997;DHT22;8103;51.340;12.326;2023-04-08T13:51:26;13.20;94.00
15997;DHT22;8103;51.340;12.326;2023-04-08T13:53:53;12.90;93.40
15997;DHT22;8103;51.340;12.326;2023-04-08T13:56:19;12.70;93.80
15997;DHT22;8103;51.340;12.326;2023-04-08T13:58:46;12.50;94.40
15997;DHT22;8103;51.340;12.326;2023-04-08T14:01:22;12.30;95.00
15997;DHT22;8103;51.340;12.326;2023-04-08T14:03:49;12.10;95.70
15997;DHT22;8103;51.340;12.326;2023-04-08T14:06:16;12.00;96.10
15997;DHT22;8103;51.340;12.326;2023-04-08T14:08:46;12.00;96.60
15997;DHT22;8103;51.340;12.326;2023-04-08T14:11:13;12.10;96.90
15997;DHT22;8103;51.340;12.326;2023-04-08T14:13:40;12.30;96.80
15997;DHT22;8103;51.340;12.326;2023-04-08T14:16:07;12.60;96.60
15997;DHT22;8103;51.340;12.326;2023-04-08T14:18:34;13.20;96.20
15997;DHT22;8103;51.340;12.326;2023-04-08T14:21:11;13.50;94.60
15997;DHT22;8103;51.340;12.326;2023-04-08T14:23:42;13.50;93.80
15997;DHT22;8103;51.340;12.326;2023-04-08T14:26:09;13.20;93.60
15997;DHT22;8103;51.340;12.326;2023-04-08T14:28:36;12.90;93.80
15997;DHT22;8103;51.340;12.326;2023-04-08T14:31:03;12.60;94.40
15997;DHT22;8103;51.340;12.326;2023-04-08T14:37:35;12.20;94.90
15997;DHT22;8103;51.340;12.326;2023-04-08T14:40:04;12.20;95.20
15997;DHT22;8103;51.340;12.326;2023-04-08T14:42:31;12.20;95.10
15997;DHT22;8103;51.340;12.326;2023-04-08T14:48:58;12.20;95.20
15997;DHT22;8103;51.340;12.326;2023-04-08T14:55:31;12.10;95.00
15997;DHT22;8103;51.340;12.326;2023-04-08T14:57:58;12.00;94.90
15997;DHT22;8103;51.340;12.326;2023-04-08T15:00:26;12.10;94.80
15997;DHT22;8103;51.340;12.326;2023-04-08T15:02:53;12.20;94.80
15997;DHT22;8103;51.340;12.326;2023-04-08T15:05:20;12.40;94.70
15997;DHT22;8103;51.340;12.326;2023-04-08T15:07:47;12.60;94.40
15997;DHT22;8103;51.340;12.326;2023-04-08T15:10:14;12.80;94.00
15997;DHT22;8103;51.340;12.326;2023-04-08T15:12:41;12.90;93.40
15997;DHT22;8103;51.340;12.326;2023-04-08T15:15:08;12.90;93.30
15997;DHT22;8103;51.340;12.326;2023-04-08T15:17:36;12.90;93.00
15997;DHT22;8103;51.340;12.326;2023-04-08T15:20:03;12.90;92.70
15997;DHT22;8103;51.340;12.326;2023-04-08T15:26:37;12.50;92.80
15997;DHT22;8103;51.340;12.326;2023-04-08T15:29:05;12.20;93.00
15997;DHT22;8103;51.340;12.326;2023-04-08T15:31:32;12.00;92.90
15997;DHT22;8103;51.340;12.326;2023-04-08T15:34:00;11.90;93.20
15997;DHT22;8103;51.340;12.326;2023-04-08T15:36:29;11.80;93.40
15997;DHT22;8103;51.340;12.326;2023-04-08T15:38:56;11.70;93.70
15997;DHT22;8103;51.340;12.326;2023-04-08T15:41:23;11.70;94.00
15997;DHT22;8103;51.340;12.326;2023-04-08T15:43:51;11.80;94.10
15997;DHT22;8103;51.340;12.326;2023-04-08T15:46:19;11.90;93.80
15997;DHT22;8103;51.340;12.326;2023-04-08T15:48:47;12.10;93.70
15997;DHT22;8103;51.340;12.326;2023-04-08T15:51:14;12.20;93.30
15997;DHT22;8103;51.340;12.326;2023-04-08T15:53:42;12.40;92.60
15997;DHT22;8103;51.340;12.326;2023-04-08T15:56:13;12.50;92.50
15997;DHT22;8103;51.340;12.326;2023-04-08T15:58:42;12.40;92.40
15997;DHT22;8103;51.340;12.326;2023-04-08T16:01:10;12.20;92.30
15997;DHT22;8103;51.340;12.326;2023-04-08T16:03:38;12.00;92.50
15997;DHT22;8103;51.340;12.326;2023-04-08T16:06:05;12.00;92.90
15997;DHT22;8103;51.340;12.326;2023-04-08T16:08:33;12.00;93.00
15997;DHT22;8103;51.340;12.326;2023-04-08T16:11:02;12.10;92.90
15997;DHT22;8103;51.340;12.326;2023-04-08T16:13:30;12.20;92.40
15997;DHT22;8103;51.340;12.326;2023-04-08T16:16:00;12.20;92.10
15997;DHT22;8103;51.340;12.326;2023-04-08T16:18:28;12.10;91.50
15997;DHT22;8103;51.340;12.326;2023-04-08T16:20:55;11.80;91.60
15997;DHT22;8103;51.340;12.326;2023-04-08T16:27:42;11.40;92.70
15997;DHT22;8103;51.340;12.326;2023-04-08T16:30:10;11.20;93.20
15997;DHT22;8103;51.340;12.326;2023-04-08T16:32:37;11.10;93.60
15997;DHT22;8103;51.340;12.326;2023-04-08T16:35:04;10.90;93.80
15997;DHT22;8103;51.340;12.326;2023-04-08T16:37:32;10.80;94.20
15997;DHT22;8103;51.340;12.326;2023-04-08T16:39:59;10.70;94.50
15997;DHT22;8103;51.340;12.326;2023-04-08T16:46:32;10.40;94.70
15997;DHT22;8103;51.340;12.326;2023-04-08T16:53:05;10.10;95.10
15997;DHT22;8103;51.340;12.326;2023-04-08T16:55:33;10.10;95.30
15997;DHT22;8103;51.340;12.326;2023-04-08T16:58:02;10.00;95.30
15997;DHT22;8103;51.340;12.326;2023-04-08T17:00:30;10.00;95.30
15997;DHT22;8103;51.340;12.326;2023-04-08T17:02:57;9.90;95.40
15997;DHT22;8103;51.340;12.326;2023-04-08T17:05:25;9.80;95.30
15997;DHT22;8103;51.340;12.326;2023-04-08T17:07:54;9.60;95.30
15997;DHT22;8103;51.340;12.326;2023-04-08T17:10:23;9.50;95.30
15997;DHT22;8103;51.340;12.326;2023-04-08T17:12:50;9.40;95.40
15997;DHT22;8103;51.340;12.326;2023-04-08T17:15:18;9.30;95.60
15997;DHT22;8103;51.340;12.326;2023-04-08T17:17:45;9.20;95.60
15997;DHT22;8103;51.340;12.326;2023-04-08T17:20:14;9.10;95.80
15997;DHT22;8103;51.340;12.326;2023-04-08T17:22:41;9.00;95.70
15997;DHT22;8103;51.340;12.326;2023-04-08T17:25:08;8.90;95.80
15997;DHT22;8103;51.340;12.326;2023-04-08T17:31:35;8.80;96.20
15997;DHT22;8103;51.340;12.326;2023-04-08T17:34:05;8.70;96.30
15997;DHT22;8103;51.340;12.326;2023-04-08T17:36:33;8.70;96.40
15997;DHT22;8103;51.340;12.326;2023-04-08T17:39:00;8.80;96.60
15997;DHT22;8103;51.340;12.326;2023-04-08T17:41:27;8.80;96.60
15997;DHT22;8103;51.340;12.326;2023-04-08T17:44:04;8.90;96.40